sensor_id;sensor_type;location;lat;lon;timestamp;temperature;humidity
19132;DHT22;9698;51.976;7.570;2023-04-23T00:01:12;13.60;99.90
19132;DHT22;9698;51.976;7.570;2023-04-23T00:03:42;13.70;99.90
19132;DHT22;9698;51.976;7.570;2023-04-23T00:08:40;13.70;99.90
19132;DHT22;9698;51.976;7.570;2023-04-23T00:11:12;13.70;99.90
19132;DHT22;9698;51.976;7.570;2023-04-23T00:13:42;13.80;99.90
19132;DHT22;9698;51.976;7.570;2023-04-23T00:16:13;13.40;99.90
19132;DHT22;9698;51.976;7.570;2023-04-23T00:18:42;13.60;99.90
19132;DHT22;9698;51.976;7.570;2023-04-23T00:21:12;13.60;99.90
19132;DHT22;9698;51.976;7.570;2023-04-23T00:23:40;13.60;99.90
19132;DHT22;9698;51.976;7.570;2023-04-23T00:26:08;13.60;99.90
19132;DHT22;9698;51.976;7.570;2023-04-23T00:28:36;13.50;99.90
19132;DHT22;9698;51.976;7.570;2023-04-23T00:31:04;13.50;99.90
19132;DHT22;9698;51.976;7.570;2023-04-23T00:33:32;13.40;99.90
19132;DHT22;9698;51.976;7.570;2023-04-23T00:36:00;13.50;99.90
19132;DHT22;9698;51.976;7.570;2023-04-23T00:38:28;13.50;99.90
19132;DHT22;9698;51.976;7.570;2023-04-23T00:40:55;13.20;99.90
19132;DHT22;9698;51.976;7.570;2023-04-23T00:43:23;13.40;99.90
19132;DHT22;9698;51.976;7.570;2023-04-23T00:45:51;13.80;99.90
19132;DHT22;9698;51.976;7.570;2023-04-23T00:48:19;13.30;99.90
19132;DHT22;9698;51.976;7.570;2023-04-23T00:50:47;13.30;99.90
19132;DHT22;9698;51.976;7.570;2023-04-23T00:53:17;13.30;99.90
19132;DHT22;9698;51.976;7.570;2023-04-23T00:58:39;13.30;99.90
19132;DHT22;9698;51.976;7.570;2023-04-23T01:01:07;13.40;99.90
19132;DHT22;9698;51.976;7.570;2023-04-23T01:03:36;13.40;99.90
19132;DHT22;9698;51.976;7.570;2023-04-23T01:06:06;13.30;99.90
19132;DHT22;9698;51.976;7.570;2023-04-23T01:08:34;13.40;99.90
19132;DHT22;9698;51.976;7.570;2023-04-23T01:11:03;13.30;99.90
19132;DHT22;9698;51.976;7.570;2023-04-23T01:13:31;13.20;99.90
19132;DHT22;9698;51.976;7.570;2023-04-23T01:15:59;13.30;99.90
19132;DHT22;9698;51.976;7.570;2023-04-23T01:18:27;13.10;99.90
19132;DHT22;9698;51.976;7.570;2023-04-23T01:20:55;13.20;99.90
19132;DHT22;9698;51.976;7.570;2023-04-23T01:23:24;13.20;99.90
19132;DHT22;9698;51.976;7.570;2023-04-23T01:25:53;13.20;99.90
19132;DHT22;9698;51.976;7.570;2023-04-23T01:28:21;13.20;99.90
19132;DHT22;9698;51.976;7.570;2023-04-23T01:30:50;13.20;99.90
19132;DHT22;9698;51.976;7.570;2023-04-23T01:33:18;13.20;99.90
19132;DHT22;9698;51.976;7.570;2023-04-23T01:35:47;13.20;99.90
19132;DHT22;9698;51.976;7.570;2023-04-23T01:38:16;13.30;99.90
19132;DHT22;9698;51.976;7.570;2023-04-23T01:40:44;13.20;99.90
19132;DHT22;9698;51.976;7.570;2023-04-23T01:43:13;13.20;99.90
19132;DHT22;9698;51.976;7.570;2023-04-23T01:45:41;13.10;99.90
19132;DHT22;9698;51.976;7.570;2023-04-23T01:48:09;13.20;99.90
19132;DHT22;9698;51.976;7.570;2023-04-23T01:50:37;13.10;99.90
19132;DHT22;9698;51.976;7.570;2023-04-23T01:53:05;13.20;99.90
19132;DHT22;9698;51.976;7.570;2023-04-23T01:55:35;13.00;99.90
19132;DHT22;9698;51.976;7.570;2023-04-23T01:58:04;13.10;99.90
19132;DHT22;9698;51.976;7.570;2023-04-23T02:00:33;13.00;99.90
19132;DHT22;9698;51.976;7.570;2023-04-23T02:03:00;12.90;99.90
19132;DHT22;9698;51.976;7.570;2023-04-23T02:05:30;13.10;99.90
19132;DHT22;9698;51.976;7.570;2023-04-23T02:08:00;13.00;99.90
19132;DHT22;9698;51.976;7.570;2023-04-23T02:10:29;13.20;99.90
19132;DHT22;9698;51.976;7.570;2023-04-23T02:12:58;13.10;99.90
19132;DHT22;9698;51.976;7.570;2023-04-23T02:15:26;13.10;99.90
19132;DHT22;9698;51.976;7.570;2023-04-23T02:17:54;13.00;99.90
19132;DHT22;9698;51.976;7.570;2023-04-23T02:20:22;12.90;99.90
19132;DHT22;9698;51.976;7.570;2023-04-23T02:22:50;12.90;99.90
19132;DHT22;9698;51.976;7.570;2023-04-23T02:25:18;13.20;99.90
19132;DHT22;9698;51.976;7.570;2023-04-23T02:27:48;13.00;99.90
19132;DHT22;9698;51.976;7.570;2023-04-23T02:30:20;13.10;99.90
19132;DHT22;9698;51.976;7.570;2023-04-23T02:32:49;13.10;99.90
19132;DHT22;9698;51.976;7.570;2023-04-23T02:35:17;12.80;99.90
19132;DHT22;9698;51.976;7.570;2023-04-23T02:37:45;12.90;99.90
19132;DHT22;9698;51.976;7.570;2023-04-23T02:40:13;12.90;99.90
19132;DHT22;9698;51.976;7.570;2023-04-23T02:42:40;12.90;99.90
19132;DHT22;9698;51.976;7.570;2023-04-23T02:45:11;12.80;99.90
19132;DHT22;9698;51.976;7.570;2023-04-23T02:47:42;12.80;99.90
19132;DHT22;9698;51.976;7.570;2023-04-23T02:50:11;12.80;99.90
19132;DHT22;9698;51.976;7.570;2023-04-23T02:52:38;12.90;99.90
19132;DHT22;9698;51.976;7.570;2023-04-23T02:55:08;12.70;99.90
19132;DHT22;9698;51.976;7.570;2023-04-23T02:57:37;13.00;99.90
19132;DHT22;9698;51.976;7.570;2023-04-23T03:00:08;12.70;99.90
19132;DHT22;9698;51.976;7.570;2023-04-23T03:02:38;12.50;99.90
19132;DHT22;9698;51.976;7.570;2023-04-23T03:05:08;12.60;99.90
19132;DHT22;9698;51.976;7.570;2023-04-23T03:07:36;12.60;99.90
19132;DHT22;9698;51.976;7.570;2023-04-23T03:10:05;12.60;99.90
19132;DHT22;9698;51.976;7.570;2023-04-23T03:12:34;12.50;99.90
19132;DHT22;9698;51.976;7.570;2023-04-23T03:15:06;12.80;99.90
19132;DHT22;9698;51.976;7.570;2023-04-23T03:17:37;12.50;99.90
19132;DHT22;9698;51.976;7.570;2023-04-23T03:20:08;12.70;99.90
19132;DHT22;9698;51.976;7.570;2023-04-23T03:22:39;12.70;99.90
19132;DHT22;9698;51.976;7.570;2023-04-23T03:25:08;12.60;99.90
19132;DHT22;9698;51.976;7.570;2023-04-23T03:27:38;12.60;99.90
19132;DHT22;9698;51.976;7.570;2023-04-23T03:30:09;12.60;99.90
19132;DHT22;9698;51.976;7.570;2023-04-23T03:32:37;12.50;99.90
19132;DHT22;9698;51.976;7.570;2023-04-23T03:35:07;12.40;99.90
19132;DHT22;9698;51.976;7.570;2023-04-23T03:37:35;12.50;99.90
19132;DHT22;9698;51.976;7.570;2023-04-23T03:40:05;12.40;99.90
19132;DHT22;9698;51.976;7.570;2023-04-23T03:42:33;12.40;99.90
19132;DHT22;9698;51.976;7.570;2023-04-23T03:45:02;12.40;99.90
19132;DHT22;9698;51.976;7.570;2023-04-23T03:47:29;12.40;99.90
19132;DHT22;9698;51.976;7.570;2023-04-23T03:49:58;12.30;99.90
19132;DHT22;9698;51.976;7.570;2023-04-23T03:52:26;12.10;99.90
19132;DHT22;9698;51.976;7.570;2023-04-23T03:54:54;12.40;99.90
19132;DHT22;9698;51.976;7.570;2023-04-23T03:57:22;12.40;99.90
19132;DHT22;9698;51.976;7.570;2023-04-23T03:59:50;12.40;99.90
19132;DHT22;9698;51.976;7.570;2023-04-23T04:02:18;12.40;99.90
19132;DHT22;9698;51.976;7.570;2023-04-23T04:04:46;12.30;99.90
19132;DHT22;9698;51.976;7.570;2023-04-23T04:07:17;12.30;99.90
19132;DHT22;9698;51.976;7.570;2023-04-23T04:09:45;12.30;99.90
19132;DHT22;9698;51.976;7.570;2023-04-23T04:12:15;12.30;99.90
19132;DHT22;9698;51.976;7.570;2023-04-23T04:14:43;12.20;99.90
19132;DHT22;9698;51.976;7.570;2023-04-23T04:17:12;12.30;99.90
19132;DHT22;9698;51.976;7.570;2023-04-23T04:19:42;12.20;99.90
19132;DHT22;9698;51.976;7.570;2023-04-23T04:22:10;12.30;99.90
19132;DHT22;9698;51.976;7.570;2023-04-23T04:24:38;12.30;99.90
19132;DHT22;9698;51.976;7.570;2023-04-23T04:27:08;11.60;99.90
19132;DHT22;9698;51.976;7.570;2023-04-23T04:32:25;12.80;99.90
19132;DHT22;9698;51.976;7.570;2023-04-23T04:34:53;12.30;99.90
19132;DHT22;9698;51.976;7.570;2023-04-23T04:40:10;12.30;99.90
19132;DHT22;9698;51.976;7.570;2023-04-23T04:42:43;12.30;99.90
19132;DHT22;9698;51.976;7.570;2023-04-23T04:45:12;12.30;99.90
19132;DHT22;9698;51.976;7.570;2023-04-23T04:47:40;12.00;99.90
19132;DHT22;9698;51.976;7.570;2023-04-23T04:50:10;12.30;99.90
19132;DHT22;9698;51.976;7.570;2023-04-23T04:52:38;12.40;99.90
19132;DHT22;9698;51.976;7.570;2023-04-23T04:55:08;12.30;99.90
19132;DHT22;9698;51.976;7.570;2023-04-23T04:57:38;12.30;99.90
19132;DHT22;9698;51.976;7.570;2023-04-23T05:00:20;12.30;99.90
19132;DHT22;9698;51.976;7.570;2023-04-23T05:02:49;12.30;99.90
19132;DHT22;9698;51.976;7.570;2023-04-23T05:05:18;12.30;99.90
19132;DHT22;9698;51.976;7.570;2023-04-23T05:07:46;12.30;99.90
19132;DHT22;9698;51.976;7.570;2023-04-23T05:10:15;12.40;99.90
19132;DHT22;9698;51.976;7.570;2023-04-23T05:12:43;12.30;99.90
19132;DHT22;9698;51.976;7.570;2023-04-23T05:15:12;12.20;99.90
19132;DHT22;9698;51.976;7.570;2023-04-23T05:17:41;12.20;99.90
19132;DHT22;9698;51.976;7.570;2023-04-23T05:20:11;12.20;99.90
19132;DHT22;9698;51.976;7.570;2023-04-23T05:22:41;12.20;99.90
19132;DHT22;9698;51.976;7.570;2023-04-23T05:25:10;12.20;99.90
19132;DHT22;9698;51.976;7.570;2023-04-23T05:27:39;12.30;99.90
19132;DHT22;9698;51.976;7.570;2023-04-23T05:30:09;12.40;99.90
19132;DHT22;9698;51.976;7.570;2023-04-23T05:32:37;12.10;99.90
19132;DHT22;9698;51.976;7.570;2023-04-23T05:35:08;12.30;99.90
19132;DHT22;9698;51.976;7.570;2023-04-23T05:37:36;12.40;99.90
19132;DHT22;9698;51.976;7.570;2023-04-23T05:40:06;12.40;99.90
19132;DHT22;9698;51.976;7.570;2023-04-23T05:42:34;12.30;99.90
19132;DHT22;9698;51.976;7.570;2023-04-23T05:45:04;12.40;99.90
19132;DHT22;9698;51.976;7.570;2023-04-23T05:47:36;12.40;99.90
19132;DHT22;9698;51.976;7.570;2023-04-23T05:50:06;12.40;99.90
19132;DHT22;9698;51.976;7.570;2023-04-23T05:52:36;12.40;99.90
19132;DHT22;9698;51.976;7.570;2023-04-23T05:55:08;12.40;99.90
19132;DHT22;9698;51.976;7.570;2023-04-23T05:57:36;12.50;99.90
19132;DHT22;9698;51.976;7.570;2023-04-23T06:00:11;12.50;99.90
19132;DHT22;9698;51.976;7.570;2023-04-23T06:02:42;12.50;99.90
19132;DHT22;9698;51.976;7.570;2023-04-23T06:05:10;12.60;99.90
19132;DHT22;9698;51.976;7.570;2023-04-23T06:07:40;12.60;99.90
19132;DHT22;9698;51.976;7.570;2023-04-23T06:10:10;12.70;99.90
19132;DHT22;9698;51.976;7.570;2023-04-23T06:12:38;12.70;99.90
19132;DHT22;9698;51.976;7.570;2023-04-23T06:15:09;12.70;99.90
19132;DHT22;9698;51.976;7.570;2023-04-23T06:17:38;12.70;99.90
19132;DHT22;9698;51.976;7.570;2023-04-23T06:20:08;12.80;99.90
19132;DHT22;9698;51.976;7.570;2023-04-23T06:22:38;12.70;99.90
19132;DHT22;9698;51.976;7.570;2023-04-23T06:25:08;12.70;99.90
19132;DHT22;9698;51.976;7.570;2023-04-23T06:27:36;12.80;99.90
19132;DHT22;9698;51.976;7.570;2023-04-23T06:30:06;12.70;99.90
19132;DHT22;9698;51.976;7.570;2023-04-23T06:35:23;12.90;99.90
19132;DHT22;9698;51.976;7.570;2023-04-23T06:37:51;12.90;99.90
19132;DHT22;9698;51.976;7.570;2023-04-23T06:40:19;13.10;99.90
19132;DHT22;9698;51.976;7.570;2023-04-23T06:42:47;13.00;99.90
19132;DHT22;9698;51.976;7.570;2023-04-23T06:45:15;13.10;99.90
19132;DHT22;9698;51.976;7.570;2023-04-23T06:47:43;13.10;99.90
19132;DHT22;9698;51.976;7.570;2023-04-23T06:50:11;13.20;99.90
19132;DHT22;9698;51.976;7.570;2023-04-23T06:52:39;13.30;99.90
19132;DHT22;9698;51.976;7.570;2023-04-23T06:55:13;13.70;99.90
19132;DHT22;9698;51.976;7.570;2023-04-23T06:57:41;13.50;99.90
19132;DHT22;9698;51.976;7.570;2023-04-23T07:00:12;13.60;99.90
19132;DHT22;9698;51.976;7.570;2023-04-23T07:02:40;13.50;99.90
19132;DHT22;9698;51.976;7.570;2023-04-23T07:05:09;13.50;99.90
19132;DHT22;9698;51.976;7.570;2023-04-23T07:07:37;13.60;99.90
19132;DHT22;9698;51.976;7.570;2023-04-23T07:10:07;13.70;99.90
19132;DHT22;9698;51.976;7.570;2023-04-23T07:12:36;13.70;99.90
19132;DHT22;9698;51.976;7.570;2023-04-23T07:15:10;13.70;99.90
19132;DHT22;9698;51.976;7.570;2023-04-23T07:17:38;13.70;99.90
19132;DHT22;9698;51.976;7.570;2023-04-23T07:20:08;13.80;99.90
19132;DHT22;9698;51.976;7.570;2023-04-23T07:22:36;14.00;99.90
19132;DHT22;9698;51.976;7.570;2023-04-23T07:25:05;13.90;99.90
19132;DHT22;9698;51.976;7.570;2023-04-23T07:27:34;13.80;99.90
19132;DHT22;9698;51.976;7.570;2023-04-23T07:30:04;14.30;99.90
19132;DHT22;9698;51.976;7.570;2023-04-23T07:32:32;13.90;99.90
19132;DHT22;9698;51.976;7.570;2023-04-23T07:35:01;13.90;99.90
19132;DHT22;9698;51.976;7.570;2023-04-23T07:37:31;14.00;99.90
19132;DHT22;9698;51.976;7.570;2023-04-23T07:39:59;13.90;99.90
19132;DHT22;9698;51.976;7.570;2023-04-23T07:42:28;13.80;99.90
19132;DHT22;9698;51.976;7.570;2023-04-23T07:44:56;13.70;99.90
19132;DHT22;9698;51.976;7.570;2023-04-23T07:47:23;13.90;99.90
19132;DHT22;9698;51.976;7.570;2023-04-23T07:49:52;13.90;99.90
19132;DHT22;9698;51.976;7.570;2023-04-23T07:52:19;14.00;99.90
19132;DHT22;9698;51.976;7.570;2023-04-23T07:54:47;14.00;99.90
19132;DHT22;9698;51.976;7.570;2023-04-23T07:57:15;14.00;99.90
19132;DHT22;9698;51.976;7.570;2023-04-23T07:59:43;14.00;99.90
19132;DHT22;9698;51.976;7.570;2023-04-23T08:02:11;14.00;99.90
19132;DHT22;9698;51.976;7.570;2023-04-23T08:04:39;14.00;99.90
19132;DHT22;9698;51.976;7.570;2023-04-23T08:07:07;14.00;99.90
19132;DHT22;9698;51.976;7.570;2023-04-23T08:09:35;14.00;99.90
19132;DHT22;9698;51.976;7.570;2023-04-23T08:12:03;13.90;99.90
19132;DHT22;9698;51.976;7.570;2023-04-23T08:14:31;14.10;99.90
19132;DHT22;9698;51.976;7.570;2023-04-23T08:16:59;14.00;99.90
19132;DHT22;9698;51.976;7.570;2023-04-23T08:19:27;14.20;99.90
19132;DHT22;9698;51.976;7.570;2023-04-23T08:21:58;14.10;99.90
19132;DHT22;9698;51.976;7.570;2023-04-23T08:24:26;14.20;99.90
19132;DHT22;9698;51.976;7.570;2023-04-23T08:26:54;14.30;99.90
19132;DHT22;9698;51.976;7.570;2023-04-23T08:29:23;14.30;99.90
19132;DHT22;9698;51.976;7.570;2023-04-23T08:31:51;14.40;99.90
19132;DHT22;9698;51.976;7.570;2023-04-23T08:34:19;14.40;99.90
19132;DHT22;9698;51.976;7.570;2023-04-23T08:36:47;14.50;99.90
19132;DHT22;9698;51.976;7.570;2023-04-23T08:39:15;14.40;99.90
19132;DHT22;9698;51.976;7.570;2023-04-23T08:41:44;14.60;99.90
19132;DHT22;9698;51.976;7.570;2023-04-23T08:44:18;14.60;99.90
19132;DHT22;9698;51.976;7.570;2023-04-23T08:46:48;14.70;99.90
19132;DHT22;9698;51.976;7.570;2023-04-23T08:49:18;14.70;99.90
19132;DHT22;9698;51.976;7.570;2023-04-23T08:51:49;14.80;99.90
19132;DHT22;9698;51.976;7.570;2023-04-23T08:54:24;14.80;99.90
19132;DHT22;9698;51.976;7.570;2023-04-23T08:56:55;14.90;99.90
19132;DHT22;9698;51.976;7.570;2023-04-23T08:59:25;14.90;99.90
19132;DHT22;9698;51.976;7.570;2023-04-23T09:01:53;14.90;99.90
19132;DHT22;9698;51.976;7.570;2023-04-23T09:04:22;14.90;99.90
19132;DHT22;9698;51.976;7.570;2023-04-23T09:06:51;15.10;99.90
19132;DHT22;9698;51.976;7.570;2023-04-23T09:09:20;15.00;99.90
19132;DHT22;9698;51.976;7.570;2023-04-23T09:11:49;15.00;99.90
19132;DHT22;9698;51.976;7.570;2023-04-23T09:14:23;15.00;99.90
19132;DHT22;9698;51.976;7.570;2023-04-23T09:16:52;15.20;99.90
19132;DHT22;9698;51.976;7.570;2023-04-23T09:19:20;15.20;99.90
19132;DHT22;9698;51.976;7.570;2023-04-23T09:21:48;15.10;99.90
19132;DHT22;9698;51.976;7.570;2023-04-23T09:24:17;15.30;99.90
19132;DHT22;9698;51.976;7.570;2023-04-23T09:26:46;15.40;99.90
19132;DHT22;9698;51.976;7.570;2023-04-23T09:29:16;15.50;99.90
19132;DHT22;9698;51.976;7.570;2023-04-23T09:31:45;15.50;99.90
19132;DHT22;9698;51.976;7.570;2023-04-23T09:34:18;15.50;96.00
19132;DHT22;9698;51.976;7.570;2023-04-23T09:36:48;15.40;99.60
19132;DHT22;9698;51.976;7.570;2023-04-23T09:39:18;15.50;99.90
19132;DHT22;9698;51.976;7.570;2023-04-23T09:41:48;15.70;99.90
19132;DHT22;9698;51.976;7.570;2023-04-23T09:44:18;15.40;99.90
19132;DHT22;9698;51.976;7.570;2023-04-23T09:46:48;15.30;99.90
19132;DHT22;9698;51.976;7.570;2023-04-23T09:49:18;15.40;99.90
19132;DHT22;9698;51.976;7.570;2023-04-23T09:51:48;15.40;99.90
19132;DHT22;9698;51.976;7.570;2023-04-23T09:54:19;15.40;99.90
19132;DHT22;9698;51.976;7.570;2023-04-23T09:56:53;15.30;99.90
19132;DHT22;9698;51.976;7.570;2023-04-23T09:59:25;15.60;84.70
19132;DHT22;9698;51.976;7.570;2023-04-23T10:02:12;15.70;19.00
19132;DHT22;9698;51.976;7.570;2023-04-23T10:04:41;15.70;20.00
19132;DHT22;9698;51.976;7.570;2023-04-23T10:07:09;15.90;44.30
19132;DHT22;9698;51.976;7.570;2023-04-23T10:09:43;15.90;1.00
19132;DHT22;9698;51.976;7.570;2023-04-23T10:12:13;16.00;1.00
19132;DHT22;9698;51.976;7.570;2023-04-23T10:15:12;16.00;1.00
19132;DHT22;9698;51.976;7.570;2023-04-23T10:17:43;16.10;1.00
19132;DHT22;9698;51.976;7.570;2023-04-23T10:20:14;16.10;1.00
19132;DHT22;9698;51.976;7.570;2023-04-23T10:22:44;16.50;1.00
19132;DHT22;9698;51.976;7.570;2023-04-23T10:25:13;16.30;1.00
19132;DHT22;9698;51.976;7.570;2023-04-23T10:27:43;16.30;1.00
19132;DHT22;9698;51.976;7.570;2023-04-23T10:30:21;16.30;1.00
19132;DHT22;9698;51.976;7.570;2023-04-23T10:32:52;16.30;1.00
19132;DHT22;9698;51.976;7.570;2023-04-23T10:35:22;16.20;1.00
19132;DHT22;9698;51.976;7.570;2023-04-23T10:37:52;16.20;1.00
19132;DHT22;9698;51.976;7.570;2023-04-23T10:40:30;16.20;1.00
19132;DHT22;9698;51.976;7.570;2023-04-23T10:42:59;16.20;1.00
19132;DHT22;9698;51.976;7.570;2023-04-23T10:45:30;15.90;1.00
19132;DHT22;9698;51.976;7.570;2023-04-23T10:47:58;16.30;1.00
19132;DHT22;9698;51.976;7.570;2023-04-23T10:50:28;16.40;1.00
19132;DHT22;9698;51.976;7.570;2023-04-23T10:52:57;16.30;1.00
19132;DHT22;9698;51.976;7.570;2023-04-23T10:55:28;16.40;1.00
19132;DHT22;9698;51.976;7.570;2023-04-23T10:57:58;16.50;1.00
19132;DHT22;9698;51.976;7.570;2023-04-23T11:00:42;16.70;1.00
19132;DHT22;9698;51.976;7.570;2023-04-23T11:09:30;16.60;96.00
19132;DHT22;9698;51.976;7.570;2023-04-23T11:11:58;16.50;99.90
19132;DHT22;9698;51.976;7.570;2023-04-23T11:14:35;16.50;99.90
19132;DHT22;9698;51.976;7.570;2023-04-23T11:17:03;16.50;99.90
19132;DHT22;9698;51.976;7.570;2023-04-23T11:19:35;16.50;99.90
19132;DHT22;9698;51.976;7.570;2023-04-23T11:22:04;16.60;1.00
19132;DHT22;9698;51.976;7.570;2023-04-23T11:24:35;16.70;1.00
19132;DHT22;9698;51.976;7.570;2023-04-23T11:27:09;16.80;1.00
19132;DHT22;9698;51.976;7.570;2023-04-23T11:29:38;16.90;1.00
19132;DHT22;9698;51.976;7.570;2023-04-23T11:32:08;16.90;1.00
19132;DHT22;9698;51.976;7.570;2023-04-23T11:34:39;17.00;1.00
19132;DHT22;9698;51.976;7.570;2023-04-23T11:37:09;16.90;1.00
19132;DHT22;9698;51.976;7.570;2023-04-23T11:39:38;17.00;1.00
19132;DHT22;9698;51.976;7.570;2023-04-23T11:42:10;17.00;1.00
19132;DHT22;9698;51.976;7.570;2023-04-23T11:44:39;17.10;1.00
19132;DHT22;9698;51.976;7.570;2023-04-23T11:47:08;16.90;1.00
19132;DHT22;9698;51.976;7.570;2023-04-23T11:49:37;16.90;1.00
19132;DHT22;9698;51.976;7.570;2023-04-23T11:52:05;17.00;1.00
19132;DHT22;9698;51.976;7.570;2023-04-23T11:57:02;16.90;1.00
19132;DHT22;9698;51.976;7.570;2023-04-23T11:59:32;17.10;1.00
19132;DHT22;9698;51.976;7.570;2023-04-23T12:02:00;17.10;1.00
19132;DHT22;9698;51.976;7.570;2023-04-23T12:04:30;16.90;1.00
19132;DHT22;9698;51.976;7.570;2023-04-23T12:06:59;17.20;99.90
19132;DHT22;9698;51.976;7.570;2023-04-23T12:09:28;17.20;99.90
19132;DHT22;9698;51.976;7.570;2023-04-23T12:11:57;17.20;99.90
19132;DHT22;9698;51.976;7.570;2023-04-23T12:14:29;17.20;99.90
19132;DHT22;9698;51.976;7.570;2023-04-23T12:17:09;17.10;99.90
19132;DHT22;9698;51.976;7.570;2023-04-23T12:19:37;17.20;99.90
19132;DHT22;9698;51.976;7.570;2023-04-23T12:22:09;17.20;99.90
19132;DHT22;9698;51.976;7.570;2023-04-23T12:24:46;17.20;99.90
19132;DHT22;9698;51.976;7.570;2023-04-23T12:27:19;17.00;99.90
19132;DHT22;9698;51.976;7.570;2023-04-23T12:29:48;17.10;99.90
19132;DHT22;9698;51.976;7.570;2023-04-23T12:32:17;17.20;99.90
19132;DHT22;9698;51.976;7.570;2023-04-23T12:34:52;17.10;1.00
19132;DHT22;9698;51.976;7.570;2023-04-23T12:37:24;17.20;99.90
19132;DHT22;9698;51.976;7.570;2023-04-23T12:39:53;17.20;99.90
19132;DHT22;9698;51.976;7.570;2023-04-23T12:42:22;17.30;99.90
19132;DHT22;9698;51.976;7.570;2023-04-23T12:44:50;17.00;99.90
19132;DHT22;9698;51.976;7.570;2023-04-23T12:47:22;17.10;99.90
19132;DHT22;9698;51.976;7.570;2023-04-23T12:49:50;17.50;99.90
19132;DHT22;9698;51.976;7.570;2023-04-23T12:52:21;17.20;99.90
19132;DHT22;9698;51.976;7.570;2023-04-23T12:54:49;17.20;99.90
19132;DHT22;9698;51.976;7.570;2023-04-23T12:57:19;17.10;26.20
19132;DHT22;9698;51.976;7.570;2023-04-23T12:59:49;17.30;1.00
19132;DHT22;9698;51.976;7.570;2023-04-23T13:02:17;17.20;1.00
19132;DHT22;9698;51.976;7.570;2023-04-23T13:04:45;17.10;1.00
19132;DHT22;9698;51.976;7.570;2023-04-23T13:07:14;17.10;1.00
19132;DHT22;9698;51.976;7.570;2023-04-23T13:09:42;17.10;1.00
19132;DHT22;9698;51.976;7.570;2023-04-23T13:12:11;17.00;99.90
19132;DHT22;9698;51.976;7.570;2023-04-23T13:14:38;16.80;99.90
19132;DHT22;9698;51.976;7.570;2023-04-23T13:17:07;16.50;1.00
19132;DHT22;9698;51.976;7.570;2023-04-23T13:19:34;16.30;1.00
19132;DHT22;9698;51.976;7.570;2023-04-23T13:22:05;16.20;99.90
19132;DHT22;9698;51.976;7.570;2023-04-23T13:24:33;16.20;1.00
19132;DHT22;9698;51.976;7.570;2023-04-23T13:27:01;16.50;99.90
19132;DHT22;9698;51.976;7.570;2023-04-23T13:29:29;16.20;99.90
19132;DHT22;9698;51.976;7.570;2023-04-23T13:31:57;16.20;99.90
19132;DHT22;9698;51.976;7.570;2023-04-23T13:34:25;16.20;99.90
19132;DHT22;9698;51.976;7.570;2023-04-23T13:36:53;15.80;99.90
19132;DHT22;9698;51.976;7.570;2023-04-23T13:39:22;16.50;1.00
19132;DHT22;9698;51.976;7.570;2023-04-23T13:41:49;16.50;1.00
19132;DHT22;9698;51.976;7.570;2023-04-23T13:44:36;16.70;1.00
19132;DHT22;9698;51.976;7.570;2023-04-23T13:47:04;16.80;1.00
19132;DHT22;9698;51.976;7.570;2023-04-23T13:49:32;17.00;99.90
19132;DHT22;9698;51.976;7.570;2023-04-23T13:52:01;16.90;99.90
19132;DHT22;9698;51.976;7.570;2023-04-23T13:54:32;17.40;99.90
19132;DHT22;9698;51.976;7.570;2023-04-23T13:57:01;17.70;1.00
19132;DHT22;9698;51.976;7.570;2023-04-23T13:59:32;17.50;1.00
19132;DHT22;9698;51.976;7.570;2023-04-23T14:02:00;17.70;1.00
19132;DHT22;9698;51.976;7.570;2023-04-23T14:04:28;17.80;1.00
19132;DHT22;9698;51.976;7.570;2023-04-23T14:06:56;17.80;1.00
19132;DHT22;9698;51.976;7.570;2023-04-23T14:09:24;17.80;1.00
19132;DHT22;9698;51.976;7.570;2023-04-23T14:11:52;17.70;29.80
19132;DHT22;9698;51.976;7.570;2023-04-23T14:14:20;17.90;52.60
19132;DHT22;9698;51.976;7.570;2023-04-23T14:16:48;17.80;91.90
19132;DHT22;9698;51.976;7.570;2023-04-23T14:19:16;19.80;55.20
19132;DHT22;9698;51.976;7.570;2023-04-23T14:21:48;17.80;99.90
19132;DHT22;9698;51.976;7.570;2023-04-23T14:24:21;17.70;99.90
19132;DHT22;9698;51.976;7.570;2023-04-23T14:26:50;17.70;99.90
19132;DHT22;9698;51.976;7.570;2023-04-23T14:29:27;17.80;99.90
19132;DHT22;9698;51.976;7.570;2023-04-23T14:31:56;17.50;99.90
19132;DHT22;9698;51.976;7.570;2023-04-23T14:34:24;17.60;99.90
19132;DHT22;9698;51.976;7.570;2023-04-23T14:36:52;17.80;10.60
19132;DHT22;9698;51.976;7.570;2023-04-23T14:39:24;17.10;1.30
19132;DHT22;9698;51.976;7.570;2023-04-23T14:41:53;17.50;1.00
19132;DHT22;9698;51.976;7.570;2023-04-23T14:44:20;17.60;14.30
19132;DHT22;9698;51.976;7.570;2023-04-23T14:46:50;17.60;99.90
19132;DHT22;9698;51.976;7.570;2023-04-23T14:49:18;17.50;19.10
19132;DHT22;9698;51.976;7.570;2023-04-23T14:51:47;17.50;1.00
19132;DHT22;9698;51.976;7.570;2023-04-23T14:54:17;17.50;29.20
19132;DHT22;9698;51.976;7.570;2023-04-23T14:56:45;17.40;99.90
19132;DHT22;9698;51.976;7.570;2023-04-23T14:59:13;17.80;73.30
19132;DHT22;9698;51.976;7.570;2023-04-23T15:01:41;17.60;99.90
19132;DHT22;9698;51.976;7.570;2023-04-23T15:04:10;17.60;99.90
19132;DHT22;9698;51.976;7.570;2023-04-23T15:06:38;17.60;99.90
19132;DHT22;9698;51.976;7.570;2023-04-23T15:09:06;17.30;15.90
19132;DHT22;9698;51.976;7.570;2023-04-23T15:11:35;17.60;99.90
19132;DHT22;9698;51.976;7.570;2023-04-23T15:14:07;17.60;99.90
19132;DHT22;9698;51.976;7.570;2023-04-23T15:16:45;17.50;99.90
19132;DHT22;9698;51.976;7.570;2023-04-23T15:19:16;17.50;99.90
19132;DHT22;9698;51.976;7.570;2023-04-23T15:21:45;17.60;40.40
19132;DHT22;9698;51.976;7.570;2023-04-23T15:24:14;17.60;1.00
19132;DHT22;9698;51.976;7.570;2023-04-23T15:26:43;17.50;1.00
19132;DHT22;9698;51.976;7.570;2023-04-23T15:29:11;17.50;1.00
19132;DHT22;9698;51.976;7.570;2023-04-23T15:31:40;17.50;1.00
19132;DHT22;9698;51.976;7.570;2023-04-23T15:34:08;17.50;1.00
19132;DHT22;9698;51.976;7.570;2023-04-23T15:36:38;17.30;1.00
19132;DHT22;9698;51.976;7.570;2023-04-23T15:39:06;17.50;1.00
19132;DHT22;9698;51.976;7.570;2023-04-23T15:41:35;17.50;1.00
19132;DHT22;9698;51.976;7.570;2023-04-23T15:44:09;17.40;1.00
19132;DHT22;9698;51.976;7.570;2023-04-23T15:46:38;17.40;1.00
19132;DHT22;9698;51.976;7.570;2023-04-23T15:49:06;17.20;1.00
19132;DHT22;9698;51.976;7.570;2023-04-23T15:51:34;17.30;1.00
19132;DHT22;9698;51.976;7.570;2023-04-23T15:54:02;17.30;1.00
19132;DHT22;9698;51.976;7.570;2023-04-23T15:56:32;17.40;1.00
19132;DHT22;9698;51.976;7.570;2023-04-23T15:59:00;17.30;1.00
19132;DHT22;9698;51.976;7.570;2023-04-23T16:01:28;17.40;1.00
19132;DHT22;9698;51.976;7.570;2023-04-23T16:03:58;17.40;21.10
19132;DHT22;9698;51.976;7.570;2023-04-23T16:06:40;17.40;1.00
19132;DHT22;9698;51.976;7.570;2023-04-23T16:09:08;17.20;1.00
19132;DHT22;9698;51.976;7.570;2023-04-23T16:11:36;17.50;1.00
19132;DHT22;9698;51.976;7.570;2023-04-23T16:14:05;17.40;1.00
19132;DHT22;9698;51.976;7.570;2023-04-23T16:16:33;17.50;1.00
19132;DHT22;9698;51.976;7.570;2023-04-23T16:19:02;17.50;1.00
19132;DHT22;9698;51.976;7.570;2023-04-23T16:21:30;17.50;1.00
19132;DHT22;9698;51.976;7.570;2023-04-23T16:23:59;17.50;1.00
19132;DHT22;9698;51.976;7.570;2023-04-23T16:26:28;17.50;1.00